sensor_id;sensor_type;location;lat;lon;timestamp;pressure;altitude;pressure_sealevel;temperature;humidity
43486;BME280;30447;48.742;8.972;2024-01-15T00:01:36;95732.63;;;-1.91;80.66
43486;BME280;30447;48.742;8.972;2024-01-15T00:04:03;95726.47;;;-1.69;80.84
43486;BME280;30447;48.742;8.972;2024-01-15T00:06:30;95727.75;;;-1.85;81.48
43486;BME280;30447;48.742;8.972;2024-01-15T00:08:59;95729.69;;;-1.76;81.44
43486;BME280;30447;48.742;8.972;2024-01-15T00:11:25;95722.06;;;-1.76;80.63
43486;BME280;30447;48.742;8.972;2024-01-15T00:13:52;95724.44;;;-1.82;80.73
43486;BME280;30447;48.742;8.972;2024-01-15T00:16:19;95724.44;;;-1.82;80.68
43486;BME280;30447;48.742;8.972;2024-01-15T00:18:45;95720.75;;;-1.92;81.86
43486;BME280;30447;48.742;8.972;2024-01-15T00:21:12;95717.59;;;-1.85;80.63
43486;BME280;30447;48.742;8.972;2024-01-15T00:23:42;95709.25;;;-1.79;81.04
43486;BME280;30447;48.742;8.972;2024-01-15T00:26:10;95712.41;;;-1.88;81.72
43486;BME280;30447;48.742;8.972;2024-01-15T00:28:37;95717.03;;;-2.04;81.81
43486;BME280;30447;48.742;8.972;2024-01-15T00:31:05;95716.22;;;-2.03;82.67
43486;BME280;30447;48.742;8.972;2024-01-15T00:33:31;95715.44;;;-2.00;81.95
43486;BME280;30447;48.742;8.972;2024-01-15T00:35:58;95711.63;;;-1.86;82.29
43486;BME280;30447;48.742;8.972;2024-01-15T00:38:25;95709.03;;;-1.87;81.67
43486;BME280;30447;48.742;8.972;2024-01-15T00:40:52;95708.75;;;-1.98;81.96
43486;BME280;30447;48.742;8.972;2024-01-15T00:43:18;95701.34;;;-1.90;82.21
43486;BME280;30447;48.742;8.972;2024-01-15T00:45:45;95702.97;;;-1.92;82.01
43486;BME280;30447;48.742;8.972;2024-01-15T00:48:12;95709.37;;;-2.05;82.68
43486;BME280;30447;48.742;8.972;2024-01-15T00:50:38;95706.56;;;-1.86;82.83
43486;BME280;30447;48.742;8.972;2024-01-15T00:53:05;95714.91;;;-1.90;82.94
43486;BME280;30447;48.742;8.972;2024-01-15T00:55:31;95712.06;;;-1.70;81.67
43486;BME280;30447;48.742;8.972;2024-01-15T00:57:58;95708.28;;;-1.84;81.95
43486;BME280;30447;48.742;8.972;2024-01-15T01:00:25;95710.31;;;-2.03;83.44
43486;BME280;30447;48.742;8.972;2024-01-15T01:02:51;95710.53;;;-1.94;82.93
43486;BME280;30447;48.742;8.972;2024-01-15T01:05:18;95704.13;;;-1.81;82.15
43486;BME280;30447;48.742;8.972;2024-01-15T01:07:44;95711.44;;;-1.63;81.70
43486;BME280;30447;48.742;8.972;2024-01-15T01:10:11;95707.09;;;-1.67;82.35
43486;BME280;30447;48.742;8.972;2024-01-15T01:12:38;95707.72;;;-1.74;82.35
43486;BME280;30447;48.742;8.972;2024-01-15T01:15:05;95707.09;;;-1.67;83.09
43486;BME280;30447;48.742;8.972;2024-01-15T01:17:32;95710.22;;;-1.76;83.05
43486;BME280;30447;48.742;8.972;2024-01-15T01:19:59;95705.28;;;-1.71;83.01
43486;BME280;30447;48.742;8.972;2024-01-15T01:22:25;95701.94;;;-1.68;83.69
43486;BME280;30447;48.742;8.972;2024-01-15T01:24:52;95700.97;;;-1.74;83.03
43486;BME280;30447;48.742;8.972;2024-01-15T01:27:18;95702.94;;;-1.63;83.86
43486;BME280;30447;48.742;8.972;2024-01-15T01:29:45;95694.72;;;-1.85;83.61
43486;BME280;30447;48.742;8.972;2024-01-15T01:32:11;95693.97;;;-1.82;84.84
43486;BME280;30447;48.742;8.972;2024-01-15T01:34:41;95698.53;;;-1.69;83.31
43486;BME280;30447;48.742;8.972;2024-01-15T01:37:11;95701.75;;;-1.76;84.70
43486;BME280;30447;48.742;8.972;2024-01-15T01:39:42;95696.34;;;-1.87;85.08
43486;BME280;30447;48.742;8.972;2024-01-15T01:42:09;95697.75;;;-1.68;84.29
43486;BME280;30447;48.742;8.972;2024-01-15T01:44:37;95686.59;;;-1.41;83.65
43486;BME280;30447;48.742;8.972;2024-01-15T01:47:04;95681.75;;;-1.64;83.65
43486;BME280;30447;48.742;8.972;2024-01-15T01:49:32;95686.81;;;-1.65;84.43
43486;BME280;30447;48.742;8.972;2024-01-15T01:52:02;95683.12;;;-1.75;84.21
43486;BME280;30447;48.742;8.972;2024-01-15T01:54:33;95691.88;;;-1.65;83.97
43486;BME280;30447;48.742;8.972;2024-01-15T01:57:03;95684.47;;;-1.57;84.06
43486;BME280;30447;48.742;8.972;2024-01-15T01:59:34;95684.84;;;-1.43;82.71
43486;BME280;30447;48.742;8.972;2024-01-15T02:02:03;95679.50;;;-1.53;83.62
43486;BME280;30447;48.742;8.972;2024-01-15T02:04:31;95679.37;;;-1.57;83.76
43486;BME280;30447;48.742;8.972;2024-01-15T02:06:59;95684.88;;;-1.42;82.72
43486;BME280;30447;48.742;8.972;2024-01-15T02:09:26;95692.88;;;-1.60;83.20
43486;BME280;30447;48.742;8.972;2024-01-15T02:11:53;95688.44;;;-1.67;83.55
43486;BME280;30447;48.742;8.972;2024-01-15T02:14:20;95678.66;;;-1.84;84.78
43486;BME280;30447;48.742;8.972;2024-01-15T02:16:48;95692.13;;;-1.87;85.17
43486;BME280;30447;48.742;8.972;2024-01-15T02:19:15;95678.31;;;-1.66;84.15
43486;BME280;30447;48.742;8.972;2024-01-15T02:21:46;95682.13;;;-1.50;83.37
43486;BME280;30447;48.742;8.972;2024-01-15T02:24:12;95668.03;;;-1.70;84.25
43486;BME280;30447;48.742;8.972;2024-01-15T02:26:39;95665.19;;;-1.81;84.51
43486;BME280;30447;48.742;8.972;2024-01-15T02:29:10;95663.00;;;-2.00;85.76
43486;BME280;30447;48.742;8.972;2024-01-15T02:31:38;95661.44;;;-1.94;85.50
43486;BME280;30447;48.742;8.972;2024-01-15T02:34:04;95656.63;;;-1.85;84.78
43486;BME280;30447;48.742;8.972;2024-01-15T02:36:31;95664.94;;;-1.91;85.46
43486;BME280;30447;48.742;8.972;2024-01-15T02:38:58;95662.97;;;-1.70;84.16
43486;BME280;30447;48.742;8.972;2024-01-15T02:41:25;95673.06;;;-1.40;83.91
43486;BME280;30447;48.742;8.972;2024-01-15T02:43:51;95675.47;;;-1.77;84.61
43486;BME280;30447;48.742;8.972;2024-01-15T02:46:18;95672.66;;;-1.88;84.56
43486;BME280;30447;48.742;8.972;2024-01-15T02:48:45;95667.34;;;-1.95;85.37
43486;BME280;30447;48.742;8.972;2024-01-15T02:51:11;95667.84;;;-1.77;84.40
43486;BME280;30447;48.742;8.972;2024-01-15T02:53:38;95671.16;;;-1.79;84.54
43486;BME280;30447;48.742;8.972;2024-01-15T02:56:07;95663.59;;;-1.78;85.31
43486;BME280;30447;48.742;8.972;2024-01-15T02:58:34;95672.03;;;-1.79;85.15
43486;BME280;30447;48.742;8.972;2024-01-15T03:01:00;95668.56;;;-1.81;84.79
43486;BME280;30447;48.742;8.972;2024-01-15T03:03:27;95670.38;;;-1.77;85.08
43486;BME280;30447;48.742;8.972;2024-01-15T03:05:54;95668.50;;;-1.84;85.23
43486;BME280;30447;48.742;8.972;2024-01-15T03:08:20;95665.56;;;-1.67;85.14
43486;BME280;30447;48.742;8.972;2024-01-15T03:10:48;95667.94;;;-1.41;83.73
43486;BME280;30447;48.742;8.972;2024-01-15T03:13:15;95660.16;;;-1.80;85.04
43486;BME280;30447;48.742;8.972;2024-01-15T03:15:43;95670.56;;;-1.70;85.34
43486;BME280;30447;48.742;8.972;2024-01-15T03:18:09;95668.88;;;-1.70;85.06
43486;BME280;30447;48.742;8.972;2024-01-15T03:20:36;95662.91;;;-1.72;86.25
43486;BME280;30447;48.742;8.972;2024-01-15T03:23:03;95667.13;;;-1.73;84.99
43486;BME280;30447;48.742;8.972;2024-01-15T03:25:29;95659.78;;;-1.62;84.93
43486;BME280;30447;48.742;8.972;2024-01-15T03:27:56;95652.69;;;-1.08;82.44
43486;BME280;30447;48.742;8.972;2024-01-15T03:30:22;95655.06;;;-1.15;82.63
43486;BME280;30447;48.742;8.972;2024-01-15T03:32:49;95662.59;;;-1.51;84.03
43486;BME280;30447;48.742;8.972;2024-01-15T03:35:16;95660.72;;;-1.58;85.10
43486;BME280;30447;48.742;8.972;2024-01-15T03:37:43;95666.28;;;-1.71;85.80
43486;BME280;30447;48.742;8.972;2024-01-15T03:40:10;95656.94;;;-1.07;82.59
43486;BME280;30447;48.742;8.972;2024-01-15T03:42:37;95655.31;;;-1.38;84.03
43486;BME280;30447;48.742;8.972;2024-01-15T03:45:04;95657.97;;;-1.34;84.36
43486;BME280;30447;48.742;8.972;2024-01-15T03:47:30;95643.81;;;-1.24;83.83
43486;BME280;30447;48.742;8.972;2024-01-15T03:49:57;95652.41;;;-1.18;83.83
43486;BME280;30447;48.742;8.972;2024-01-15T03:52:24;95649.87;;;-1.18;83.17
43486;BME280;30447;48.742;8.972;2024-01-15T03:54:50;95634.22;;;-1.00;82.65
43486;BME280;30447;48.742;8.972;2024-01-15T03:57:17;95642.56;;;-1.40;84.28
43486;BME280;30447;48.742;8.972;2024-01-15T03:59:43;95645.28;;;-1.32;83.83
43486;BME280;30447;48.742;8.972;2024-01-15T04:02:13;95643.72;;;-1.27;84.08
43486;BME280;30447;48.742;8.972;2024-01-15T04:04:41;95637.44;;;-0.71;81.51
43486;BME280;30447;48.742;8.972;2024-01-15T04:07:11;95631.94;;;-1.23;83.52
43486;BME280;30447;48.742;8.972;2024-01-15T04:09:38;95629.72;;;-1.11;83.51
43486;BME280;30447;48.742;8.972;2024-01-15T04:12:05;95634.72;;;-1.15;83.76
43486;BME280;30447;48.742;8.972;2024-01-15T04:14:31;95622.09;;;-1.11;83.60
43486;BME280;30447;48.742;8.972;2024-01-15T04:16:58;95616.91;;;-1.14;83.91
43486;BME280;30447;48.742;8.972;2024-01-15T04:19:25;95622.75;;;-1.20;84.63
43486;BME280;30447;48.742;8.972;2024-01-15T04:21:51;95624.13;;;-0.97;83.43
43486;BME280;30447;48.742;8.972;2024-01-15T04:24:18;95628.06;;;-1.10;84.91
43486;BME280;30447;48.742;8.972;2024-01-15T04:26:45;95621.44;;;-1.02;83.74
43486;BME280;30447;48.742;8.972;2024-01-15T04:29:12;95629.25;;;-0.57;82.68
43486;BME280;30447;48.742;8.972;2024-01-15T04:31:38;95625.56;;;-1.07;83.83
43486;BME280;30447;48.742;8.972;2024-01-15T04:34:05;95639.22;;;-1.03;84.09
43486;BME280;30447;48.742;8.972;2024-01-15T04:36:32;95635.69;;;-1.10;84.22
43486;BME280;30447;48.742;8.972;2024-01-15T04:39:04;95636.56;;;-1.08;83.61
43486;BME280;30447;48.742;8.972;2024-01-15T04:41:31;95627.03;;;-0.82;82.48
43486;BME280;30447;48.742;8.972;2024-01-15T04:43:57;95633.59;;;-0.90;83.44
43486;BME280;30447;48.742;8.972;2024-01-15T04:46:24;95627.94;;;-1.15;84.07
43486;BME280;30447;48.742;8.972;2024-01-15T04:48:50;95621.09;;;-0.81;83.39
43486;BME280;30447;48.742;8.972;2024-01-15T04:51:17;95621.44;;;-1.02;84.15
43486;BME280;30447;48.742;8.972;2024-01-15T04:53:44;95621.44;;;-0.65;83.08
43486;BME280;30447;48.742;8.972;2024-01-15T04:56:11;95625.94;;;-0.91;83.84
43486;BME280;30447;48.742;8.972;2024-01-15T04:58:37;95627.72;;;-0.87;83.67
43486;BME280;30447;48.742;8.972;2024-01-15T05:01:04;95626.09;;;-0.84;84.50
43486;BME280;30447;48.742;8.972;2024-01-15T05:03:31;95619.03;;;-0.97;84.83
43486;BME280;30447;48.742;8.972;2024-01-15T05:05:57;95620.81;;;-0.93;85.36
43486;BME280;30447;48.742;8.972;2024-01-15T05:08:24;95621.50;;;-1.00;86.03
43486;BME280;30447;48.742;8.972;2024-01-15T05:10:50;95612.75;;;-0.75;84.34
43486;BME280;30447;48.742;8.972;2024-01-15T05:13:17;95621.81;;;-0.88;84.85
43486;BME280;30447;48.742;8.972;2024-01-15T05:15:44;95615.84;;;-0.88;85.55
43486;BME280;30447;48.742;8.972;2024-01-15T05:18:10;95612.09;;;-1.03;86.02
43486;BME280;30447;48.742;8.972;2024-01-15T05:20:37;95607.69;;;-0.73;85.48
43486;BME280;30447;48.742;8.972;2024-01-15T05:23:04;95599.78;;;-0.86;85.42
43486;BME280;30447;48.742;8.972;2024-01-15T05:25:30;95603.28;;;-0.81;85.48
43486;BME280;30447;48.742;8.972;2024-01-15T05:27:57;95609.31;;;-0.77;85.16
43486;BME280;30447;48.742;8.972;2024-01-15T05:30:23;95598.13;;;-0.85;85.78
43486;BME280;30447;48.742;8.972;2024-01-15T05:32:50;95592.38;;;-0.76;85.41
43486;BME280;30447;48.742;8.972;2024-01-15T05:35:16;95586.38;;;-0.78;85.01
43486;BME280;30447;48.742;8.972;2024-01-15T05:37:44;95585.53;;;-0.79;84.85
43486;BME280;30447;48.742;8.972;2024-01-15T05:40:12;95583.03;;;-0.77;84.98
43486;BME280;30447;48.742;8.972;2024-01-15T05:42:40;95574.66;;;-0.72;84.77
43486;BME280;30447;48.742;8.972;2024-01-15T05:45:07;95589.34;;;-0.97;85.00
43486;BME280;30447;48.742;8.972;2024-01-15T05:47:34;95583.72;;;-0.83;84.62
43486;BME280;30447;48.742;8.972;2024-01-15T05:50:01;95587.06;;;-0.86;84.62
43486;BME280;30447;48.742;8.972;2024-01-15T05:52:28;95593.88;;;-0.85;84.24
43486;BME280;30447;48.742;8.972;2024-01-15T05:54:55;95589.78;;;-0.78;84.04
43486;BME280;30447;48.742;8.972;2024-01-15T05:57:22;95584.62;;;-0.81;83.92
43486;BME280;30447;48.742;8.972;2024-01-15T05:59:49;95582.59;;;-0.58;83.87
43486;BME280;30447;48.742;8.972;2024-01-15T06:02:16;95580.31;;;-0.85;84.10
43486;BME280;30447;48.742;8.972;2024-01-15T06:04:43;95585.69;;;-0.71;83.65
43486;BME280;30447;48.742;8.972;2024-01-15T06:07:09;95573.16;;;-0.63;83.18
43486;BME280;30447;48.742;8.972;2024-01-15T06:09:36;95571.19;;;-0.75;83.55
43486;BME280;30447;48.742;8.972;2024-01-15T06:12:03;95576.91;;;-0.86;84.02
43486;BME280;30447;48.742;8.972;2024-01-15T06:14:29;95576.16;;;-0.82;83.95
43486;BME280;30447;48.742;8.972;2024-01-15T06:16:56;95576.91;;;-0.86;84.86
43486;BME280;30447;48.742;8.972;2024-01-15T06:19:22;95576.72;;;-0.94;83.60
43486;BME280;30447;48.742;8.972;2024-01-15T06:21:49;95573.03;;;-0.68;83.42
43486;BME280;30447;48.742;8.972;2024-01-15T06:24:16;95572.47;;;-0.93;83.59
43486;BME280;30447;48.742;8.972;2024-01-15T06:26:46;95553.44;;;-0.72;83.76
43486;BME280;30447;48.742;8.972;2024-01-15T06:29:13;95561.09;;;-0.71;82.66
43486;BME280;30447;48.742;8.972;2024-01-15T06:31:40;95552.91;;;-0.57;82.80
43486;BME280;30447;48.742;8.972;2024-01-15T06:34:06;95556.25;;;-0.98;84.24
43486;BME280;30447;48.742;8.972;2024-01-15T06:36:33;95547.16;;;-0.88;84.27
43486;BME280;30447;48.742;8.972;2024-01-15T06:39:00;95550.50;;;-0.91;84.10
43486;BME280;30447;48.742;8.972;2024-01-15T06:41:26;95534.59;;;-0.81;83.62
43486;BME280;30447;48.742;8.972;2024-01-15T06:43:53;95539.63;;;-0.84;83.93
43486;BME280;30447;48.742;8.972;2024-01-15T06:46:23;95537.25;;;-0.76;82.86
43486;BME280;30447;48.742;8.972;2024-01-15T06:48:50;95539.03;;;-0.72;82.24
43486;BME280;30447;48.742;8.972;2024-01-15T06:51:16;95541.38;;;-0.81;82.74
43486;BME280;30447;48.742;8.972;2024-01-15T06:53:43;95542.28;;;-0.79;82.58
43486;BME280;30447;48.742;8.972;2024-01-15T06:56:09;95540.66;;;-0.75;82.19
43486;BME280;30447;48.742;8.972;2024-01-15T06:58:36;95537.66;;;-0.97;83.68
43486;BME280;30447;48.742;8.972;2024-01-15T07:01:03;95540.38;;;-0.89;82.93
43486;BME280;30447;48.742;8.972;2024-01-15T07:03:31;95545.09;;;-1.05;83.82
43486;BME280;30447;48.742;8.972;2024-01-15T07:05:57;95537.69;;;-0.94;82.83
43486;BME280;30447;48.742;8.972;2024-01-15T07:08:24;95539.31;;;-0.98;84.33
43486;BME280;30447;48.742;8.972;2024-01-15T07:10:50;95538.09;;;-0.75;82.71
43486;BME280;30447;48.742;8.972;2024-01-15T07:13:17;95548.78;;;-0.90;82.91
43486;BME280;30447;48.742;8.972;2024-01-15T07:15:44;95545.19;;;-1.00;83.39
43486;BME280;30447;48.742;8.972;2024-01-15T07:18:11;95545.25;;;-0.99;82.63
43486;BME280;30447;48.742;8.972;2024-01-15T07:20:37;95552.91;;;-0.96;82.48
43486;BME280;30447;48.742;8.972;2024-01-15T07:23:04;95546.16;;;-0.95;82.79
43486;BME280;30447;48.742;8.972;2024-01-15T07:25:30;95553.16;;;-0.85;81.65
43486;BME280;30447;48.742;8.972;2024-01-15T07:27:57;95554.88;;;-0.84;81.14
43486;BME280;30447;48.742;8.972;2024-01-15T07:30:24;95550.41;;;-0.94;81.44
43486;BME280;30447;48.742;8.972;2024-01-15T07:32:51;95558.22;;;-0.88;81.95
43486;BME280;30447;48.742;8.972;2024-01-15T07:35:19;95555.66;;;-0.88;82.09
43486;BME280;30447;48.742;8.972;2024-01-15T07:37:45;95553.78;;;-0.95;82.85
43486;BME280;30447;48.742;8.972;2024-01-15T07:40:12;95550.84;;;-0.75;82.99
43486;BME280;30447;48.742;8.972;2024-01-15T07:42:39;95552.50;;;-0.76;82.13
43486;BME280;30447;48.742;8.972;2024-01-15T07:45:06;95561.16;;;-0.68;82.52
43486;BME280;30447;48.742;8.972;2024-01-15T07:47:32;95557.59;;;-0.77;82.46
43486;BME280;30447;48.742;8.972;2024-01-15T07:49:59;95560.13;;;-0.76;83.19
43486;BME280;30447;48.742;8.972;2024-01-15T07:52:25;95552.66;;;-0.68;82.66
43486;BME280;30447;48.742;8.972;2024-01-15T07:54:52;95556.81;;;-0.73;82.96
43486;BME280;30447;48.742;8.972;2024-01-15T07:57:19;95555.28;;;-0.65;81.92
43486;BME280;30447;48.742;8.972;2024-01-15T07:59:45;95568.06;;;-0.63;81.33
43486;BME280;30447;48.742;8.972;2024-01-15T08:02:12;95560.13;;;-0.77;81.54
43486;BME280;30447;48.742;8.972;2024-01-15T08:04:38;95563.59;;;-0.74;81.52
43486;BME280;30447;48.742;8.972;2024-01-15T08:07:05;95560.50;;;-0.59;80.41
43486;BME280;30447;48.742;8.972;2024-01-15T08:09:34;95553.97;;;-0.46;79.79
43486;BME280;30447;48.742;8.972;2024-01-15T08:12:00;95557.44;;;-0.44;79.94
43486;BME280;30447;48.742;8.972;2024-01-15T08:14:27;95563.13;;;-0.56;79.87
43486;BME280;30447;48.742;8.972;2024-01-15T08:16:54;95560.25;;;-0.71;79.89
43486;BME280;30447;48.742;8.972;2024-01-15T08:19:20;95559.72;;;-0.56;79.41
43486;BME280;30447;48.742;8.972;2024-01-15T08:21:47;95568.22;;;-0.56;79.29
43486;BME280;30447;48.742;8.972;2024-01-15T08:24:14;95561.78;;;-0.39;79.11
43486;BME280;30447;48.742;8.972;2024-01-15T08:26:41;95558.28;;;-0.43;78.62
43486;BME280;30447;48.742;8.972;2024-01-15T08:29:08;95563.13;;;-0.56;78.86
43486;BME280;30447;48.742;8.972;2024-01-15T08:31:34;95559.22;;;-0.38;77.90
43486;BME280;30447;48.742;8.972;2024-01-15T08:34:01;95558.37;;;-0.38;78.31
43486;BME280;30447;48.742;8.972;2024-01-15T08:36:28;95558.13;;;-0.09;78.07
43486;BME280;30447;48.742;8.972;2024-01-15T08:38:57;95551.59;;;-0.38;77.76
43486;BME280;30447;48.742;8.972;2024-01-15T08:41:24;95550.03;;;-0.31;77.92
43486;BME280;30447;48.742;8.972;2024-01-15T08:43:51;95560.25;;;-0.30;77.41
43486;BME280;30447;48.742;8.972;2024-01-15T08:46:19;95557.31;;;-0.48;77.35
43486;BME280;30447;48.742;8.972;2024-01-15T08:48:45;95546.81;;;-0.24;76.46
43486;BME280;30447;48.742;8.972;2024-01-15T08:51:12;95548.72;;;-0.10;75.55
43486;BME280;30447;48.742;8.972;2024-01-15T08:53:39;95556.19;;;-0.21;76.42
43486;BME280;30447;48.742;8.972;2024-01-15T08:56:05;95555.75;;;-0.42;77.23
43486;BME280;30447;48.742;8.972;2024-01-15T08:58:32;95554.12;;;-0.38;77.05
43486;BME280;30447;48.742;8.972;2024-01-15T09:00:58;95556.69;;;0.05;76.88
43486;BME280;30447;48.742;8.972;2024-01-15T09:03:26;95560.25;;;0.15;75.41
43486;BME280;30447;48.742;8.972;2024-01-15T09:05:52;95550.72;;;0.05;76.34
43486;BME280;30447;48.742;8.972;2024-01-15T09:08:20;95544.63;;;-0.04;77.19
43486;BME280;30447;48.742;8.972;2024-01-15T09:10:47;95549.19;;;-0.30;77.26
43486;BME280;30447;48.742;8.972;2024-01-15T09:13:14;95550.91;;;-0.31;78.22
43486;BME280;30447;48.742;8.972;2024-01-15T09:15:40;95546.03;;;-0.20;77.43
43486;BME280;30447;48.742;8.972;2024-01-15T09:18:07;95540.28;;;-0.08;77.56
43486;BME280;30447;48.742;8.972;2024-01-15T09:20:33;95550.16;;;-0.27;78.10
43486;BME280;30447;48.742;8.972;2024-01-15T09:23:00;95553.50;;;0.17;78.06
43486;BME280;30447;48.742;8.972;2024-01-15T09:25:27;95535.50;;;0.09;76.44
43486;BME280;30447;48.742;8.972;2024-01-15T09:27:53;95520.37;;;0.17;76.90
43486;BME280;30447;48.742;8.972;2024-01-15T09:30:20;95519.97;;;0.43;76.78
43486;BME280;30447;48.742;8.972;2024-01-15T09:32:47;95538.69;;;0.45;77.24
43486;BME280;30447;48.742;8.972;2024-01-15T09:35:13;95529.66;;;0.13;76.68
43486;BME280;30447;48.742;8.972;2024-01-15T09:37:40;95516.56;;;0.43;76.67
43486;BME280;30447;48.742;8.972;2024-01-15T09:40:08;95528.78;;;0.62;76.30
43486;BME280;30447;48.742;8.972;2024-01-15T09:42:38;95528.94;;;0.22;77.02
43486;BME280;30447;48.742;8.972;2024-01-15T09:45:06;95527.13;;;0.15;76.99
43486;BME280;30447;48.742;8.972;2024-01-15T09:47:33;95532.31;;;0.20;76.80
43486;BME280;30447;48.742;8.972;2024-01-15T09:50:00;95528.44;;;-0.07;77.87
43486;BME280;30447;48.742;8.972;2024-01-15T09:52:30;95530.84;;;-0.15;77.63
43486;BME280;30447;48.742;8.972;2024-01-15T09:54:59;95540.63;;;0.09;77.74
43486;BME280;30447;48.742;8.972;2024-01-15T09:57:29;95535.28;;;-0.05;77.43
43486;BME280;30447;48.742;8.972;2024-01-15T09:59:59;95526.41;;;0.21;77.16
43486;BME280;30447;48.742;8.972;2024-01-15T10:02:30;95516.97;;;0.17;76.84
43486;BME280;30447;48.742;8.972;2024-01-15T10:04:57;95539.22;;;0.25;77.17
43486;BME280;30447;48.742;8.972;2024-01-15T10:07:25;95524.72;;;0.23;76.17
43486;BME280;30447;48.742;8.972;2024-01-15T10:09:52;95510.81;;;0.04;76.46
43486;BME280;30447;48.742;8.972;2024-01-15T10:12:21;95525.31;;;0.09;76.50
43486;BME280;30447;48.742;8.972;2024-01-15T10:14:50;95521.13;;;0.11;76.89
43486;BME280;30447;48.742;8.972;2024-01-15T10:17:17;95516.34;;;0.29;76.43
43486;BME280;30447;48.742;8.972;2024-01-15T10:19:46;95509.78;;;0.45;76.08
43486;BME280;30447;48.742;8.972;2024-01-15T10:22:14;95513.84;;;0.33;75.93
43486;BME280;30447;48.742;8.972;2024-01-15T10:24:42;95499.78;;;0.56;76.04
43486;BME280;30447;48.742;8.972;2024-01-15T10:27:09;95501.84;;;0.80;75.52
43486;BME280;30447;48.742;8.972;2024-01-15T10:29:37;95502.41;;;0.60;75.20
43486;BME280;30447;48.742;8.972;2024-01-15T10:32:07;95495.59;;;0.61;75.27
43486;BME280;30447;48.742;8.972;2024-01-15T10:34:39;95484.41;;;0.52;75.48
43486;BME280;30447;48.742;8.972;2024-01-15T10:37:10;95481.78;;;0.46;75.40
43486;BME280;30447;48.742;8.972;2024-01-15T10:39:37;95488.37;;;0.33;75.93
43486;BME280;30447;48.742;8.972;2024-01-15T10:42:05;95485.41;;;0.61;75.24
43486;BME280;30447;48.742;8.972;2024-01-15T10:44:32;95471.22;;;0.78;74.61
43486;BME280;30447;48.742;8.972;2024-01-15T10:46:59;95475.91;;;0.50;75.71
43486;BME280;30447;48.742;8.972;2024-01-15T10:49:25;95467.56;;;0.61;75.94
43486;BME280;30447;48.742;8.972;2024-01-15T10:51:54;95471.44;;;0.94;75.01
43486;BME280;30447;48.742;8.972;2024-01-15T10:54:23;95475.44;;;0.76;76.59
43486;BME280;30447;48.742;8.972;2024-01-15T10:56:50;95472.53;;;0.53;77.02
43486;BME280;30447;48.742;8.972;2024-01-15T10:59:20;95476.38;;;0.83;76.41
43486;BME280;30447;48.742;8.972;2024-01-15T11:01:50;95472.38;;;0.42;78.90
43486;BME280;30447;48.742;8.972;2024-01-15T11:04:20;95469.88;;;0.45;80.11
43486;BME280;30447;48.742;8.972;2024-01-15T11:06:51;95469.91;;;0.47;81.24
43486;BME280;30447;48.742;8.972;2024-01-15T11:09:19;95468.16;;;0.44;82.65
43486;BME280;30447;48.742;8.972;2024-01-15T11:11:47;95462.06;;;0.36;83.59
43486;BME280;30447;48.742;8.972;2024-01-15T11:14:40;95465.53;;;0.38;84.04
43486;BME280;30447;48.742;8.972;2024-01-15T11:17:10;95452.03;;;0.45;84.41
43486;BME280;30447;48.742;8.972;2024-01-15T11:22:08;95448.78;;;0.56;81.88
43486;BME280;30447;48.742;8.972;2024-01-15T11:24:40;95453.00;;;0.52;81.96
43486;BME280;30447;48.742;8.972;2024-01-15T11:27:08;95451.53;;;0.68;80.94
43486;BME280;30447;48.742;8.972;2024-01-15T11:29:36;95461.13;;;0.86;80.81
43486;BME280;30447;48.742;8.972;2024-01-15T11:32:07;95457.56;;;0.73;81.41
43486;BME280;30447;48.742;8.972;2024-01-15T11:34:58;95454.62;;;0.48;83.24
43486;BME280;30447;48.742;8.972;2024-01-15T11:37:56;95465.44;;;0.33;85.74
43486;BME280;30447;48.742;8.972;2024-01-15T11:40:22;95452.09;;;0.50;84.30
43486;BME280;30447;48.742;8.972;2024-01-15T11:43:10;95450.22;;;0.38;86.01
43486;BME280;30447;48.742;8.972;2024-01-15T11:45:39;95445.22;;;0.44;85.09
43486;BME280;30447;48.742;8.972;2024-01-15T11:50:50;95449.41;;;0.41;85.58
43486;BME280;30447;48.742;8.972;2024-01-15T11:55:51;95462.16;;;0.41;86.14
43486;BME280;30447;48.742;8.972;2024-01-15T11:58:18;95460.81;;;0.64;84.16
43486;BME280;30447;48.742;8.972;2024-01-15T12:00:48;95465.53;;;0.38;85.73
43486;BME280;30447;48.742;8.972;2024-01-15T12:03:15;95468.63;;;0.21;89.92
43486;BME280;30447;48.742;8.972;2024-01-15T12:05:42;95465.37;;;0.29;90.77
43486;BME280;30447;48.742;8.972;2024-01-15T12:08:09;95469.56;;;0.26;91.65
43486;BME280;30447;48.742;8.972;2024-01-15T12:10:40;95468.13;;;0.43;91.32
43486;BME280;30447;48.742;8.972;2024-01-15T12:13:14;95477.19;;;0.25;92.56
43486;BME280;30447;48.742;8.972;2024-01-15T12:15:45;95466.09;;;0.21;92.52
43486;BME280;30447;48.742;8.972;2024-01-15T12:18:14;95477.81;;;0.11;94.97
43486;BME280;30447;48.742;8.972;2024-01-15T12:20:43;95476.44;;;-0.19;96.91
43486;BME280;30447;48.742;8.972;2024-01-15T12:23:13;95483.53;;;-0.02;97.04
43486;BME280;30447;48.742;8.972;2024-01-15T12:25:40;95471.38;;;-0.17;97.94
43486;BME280;30447;48.742;8.972;2024-01-15T12:28:07;95478.22;;;-0.13;98.01
43486;BME280;30447;48.742;8.972;2024-01-15T12:30:34;95478.06;;;-0.24;99.18
43486;BME280;30447;48.742;8.972;2024-01-15T12:33:06;95490.28;;;-0.50;99.32
43486;BME280;30447;48.742;8.972;2024-01-15T12:35:34;95477.78;;;-0.38;100.00
43486;BME280;30447;48.742;8.972;2024-01-15T12:38:02;95487.09;;;-0.38;99.16
43486;BME280;30447;48.742;8.972;2024-01-15T12:40:30;95483.00;;;-0.30;100.00
43486;BME280;30447;48.742;8.972;2024-01-15T12:42:58;95483.75;;;0.10;96.73
43486;BME280;30447;48.742;8.972;2024-01-15T12:45:26;95483.66;;;0.06;97.94
43486;BME280;30447;48.742;8.972;2024-01-15T12:47:53;95485.72;;;-0.21;99.26
43486;BME280;30447;48.742;8.972;2024-01-15T12:50:24;95480.56;;;-0.25;99.34
43486;BME280;30447;48.742;8.972;2024-01-15T12:52:51;95480.63;;;-0.21;100.00
43486;BME280;30447;48.742;8.972;2024-01-15T12:55:18;95489.97;;;-0.21;100.00
43486;BME280;30447;48.742;8.972;2024-01-15T12:57:45;95486.41;;;-0.30;100.00
43486;BME280;30447;48.742;8.972;2024-01-15T13:00:12;95482.44;;;-0.15;99.13
43486;BME280;30447;48.742;8.972;2024-01-15T13:02:39;95482.66;;;-0.03;99.39
43486;BME280;30447;48.742;8.972;2024-01-15T13:05:08;95480.09;;;-0.04;100.00
43486;BME280;30447;48.742;8.972;2024-01-15T13:07:37;95489.87;;;-0.26;100.00
43486;BME280;30447;48.742;8.972;2024-01-15T13:10:05;95491.88;;;-0.11;100.00
43486;BME280;30447;48.742;8.972;2024-01-15T13:12:33;95496.16;;;-0.08;100.00